createdAt,value
2023-05-19T00:00:24.955Z,15.16
2023-05-19T00:03:13.245Z,15.07
2023-05-19T00:05:46.388Z,15.01
2023-05-19T00:08:16.846Z,14.91
2023-05-19T00:10:45.035Z,14.94
2023-05-19T00:13:13.222Z,15.00
2023-05-19T00:15:41.566Z,15.12
2023-05-19T00:18:10.117Z,15.23
2023-05-19T00:20:39.085Z,15.29
2023-05-19T00:23:07.218Z,15.29
2023-05-19T00:25:35.255Z,15.20
2023-05-19T00:28:03.754Z,15.16
2023-05-19T00:30:32.332Z,15.15
2023-05-19T00:33:00.898Z,15.19
2023-05-19T00:35:29.085Z,15.15
2023-05-19T00:37:57.403Z,15.02
2023-05-19T00:40:26.015Z,14.88
2023-05-19T00:42:54.063Z,14.81
2023-05-19T00:45:22.126Z,14.77
2023-05-19T00:47:50.538Z,14.70
2023-05-19T00:50:18.603Z,14.68
2023-05-19T00:52:46.802Z,14.75
2023-05-19T00:55:15.544Z,14.80
2023-05-19T00:57:44.251Z,14.79
2023-05-19T01:00:13.851Z,14.85
2023-05-19T01:02:42.675Z,14.95
2023-05-19T01:05:11.342Z,15.02
2023-05-19T01:07:39.915Z,15.06
2023-05-19T01:10:08.191Z,15.08
2023-05-19T01:12:36.486Z,15.11
2023-05-19T01:15:05.715Z,15.17
2023-05-19T01:17:37.958Z,15.26
2023-05-19T01:20:29.299Z,15.28
2023-05-19T01:23:15.349Z,15.29
2023-05-19T01:25:58.600Z,15.25
2023-05-19T01:28:38.762Z,15.14
2023-05-19T01:31:07.601Z,15.10
2023-05-19T01:33:36.121Z,15.07
2023-05-19T01:36:06.721Z,15.03
2023-05-19T01:38:34.884Z,15.04
2023-05-19T01:41:04.320Z,15.13
2023-05-19T01:43:33.301Z,15.20
2023-05-19T01:46:02.540Z,15.23
2023-05-19T01:48:30.776Z,15.20
2023-05-19T01:50:59.293Z,15.11
2023-05-19T01:53:27.291Z,15.07
2023-05-19T01:55:56.303Z,15.07
2023-05-19T01:58:24.441Z,15.07
2023-05-19T02:01:19.170Z,15.03
2023-05-19T02:03:50.041Z,15.03
2023-05-19T02:06:39.436Z,15.06
2023-05-19T02:09:13.333Z,15.09
2023-05-19T02:11:53.441Z,15.13
2023-05-19T02:14:25.985Z,15.18
2023-05-19T02:16:54.017Z,15.15
2023-05-19T02:19:23.401Z,15.12
2023-05-19T02:21:52.359Z,15.09
2023-05-19T02:24:23.291Z,14.95
2023-05-19T02:26:52.092Z,14.89
2023-05-19T02:29:20.738Z,14.81
2023-05-19T02:31:48.937Z,14.80
2023-05-19T02:34:17.090Z,14.82
2023-05-19T02:36:45.119Z,14.89
2023-05-19T02:39:13.354Z,14.99
2023-05-19T02:41:41.520Z,15.09
2023-05-19T02:44:09.756Z,15.23
2023-05-19T02:46:38.203Z,15.37
2023-05-19T02:49:06.245Z,15.42
2023-05-19T02:51:34.348Z,15.48
2023-05-19T02:54:02.532Z,15.47
2023-05-19T02:56:30.618Z,15.29
2023-05-19T02:58:58.611Z,15.15
2023-05-19T03:01:27.088Z,15.05
2023-05-19T03:03:55.507Z,14.89
2023-05-19T03:06:24.493Z,14.84
2023-05-19T03:08:52.847Z,14.65
2023-05-19T03:11:21.354Z,14.49
2023-05-19T03:13:49.366Z,14.34
2023-05-19T03:16:17.828Z,14.36
2023-05-19T03:18:46.330Z,14.41
2023-05-19T03:21:14.517Z,14.51
2023-05-19T03:23:42.506Z,14.66
2023-05-19T03:26:10.889Z,14.83
2023-05-19T03:28:38.881Z,15.00
2023-05-19T03:31:06.865Z,15.15
2023-05-19T03:33:38.572Z,15.37
2023-05-19T03:36:07.307Z,15.63
2023-05-19T03:38:37.881Z,15.76
2023-05-19T03:41:06.067Z,15.90
2023-05-19T03:43:34.089Z,16.05
2023-05-19T03:46:04.177Z,16.14
2023-05-19T03:49:12.015Z,16.20
2023-05-19T03:51:46.244Z,16.24
2023-05-19T03:54:23.386Z,16.26
2023-05-19T03:56:52.477Z,16.32
2023-05-19T03:59:20.691Z,16.23
2023-05-19T04:01:49.061Z,16.19
2023-05-19T04:04:17.060Z,16.14
2023-05-19T04:06:46.406Z,16.16
2023-05-19T04:09:16.304Z,16.15
2023-05-19T04:11:44.396Z,16.15
2023-05-19T04:14:12.438Z,16.07
2023-05-19T04:16:40.599Z,16.19
2023-05-19T04:19:08.771Z,16.36
2023-05-19T04:21:36.974Z,16.56
2023-05-19T04:24:06.419Z,16.83
2023-05-19T04:26:34.732Z,17.14
2023-05-19T04:29:04.684Z,17.40
2023-05-19T04:31:34.651Z,17.49
2023-05-19T04:34:03.647Z,17.58
2023-05-19T04:36:34.205Z,17.48
2023-05-19T04:39:07.170Z,17.40
2023-05-19T04:41:35.312Z,17.28
2023-05-19T04:44:04.706Z,17.33
2023-05-19T04:46:32.977Z,17.35
2023-05-19T04:49:03.991Z,17.22
2023-05-19T04:51:32.082Z,17.21
2023-05-19T04:54:01.654Z,17.12
2023-05-19T04:56:30.226Z,17.73
2023-05-19T04:58:58.447Z,18.52
2023-05-19T05:01:27.491Z,19.62
2023-05-19T05:03:58.922Z,20.78
2023-05-19T05:06:28.696Z,21.92
2023-05-19T05:08:57.150Z,22.78
2023-05-19T05:11:26.413Z,23.01
2023-05-19T05:13:58.212Z,23.92
2023-05-19T05:16:28.441Z,24.58
2023-05-19T05:18:57.986Z,25.22
2023-05-19T05:21:26.672Z,25.81
2023-05-19T05:23:55.516Z,26.34
2023-05-19T05:26:28.613Z,26.31
2023-05-19T05:28:56.787Z,25.98
2023-05-19T05:31:25.950Z,25.20
2023-05-19T05:33:54.524Z,24.96
2023-05-19T05:36:25.623Z,24.61
2023-05-19T05:38:54.642Z,24.27
2023-05-19T05:41:23.617Z,24.04
2023-05-19T05:43:52.311Z,24.10
2023-05-19T05:46:20.397Z,23.94
2023-05-19T05:48:48.696Z,24.10
2023-05-19T05:51:18.034Z,24.41
2023-05-19T05:53:51.071Z,24.94
2023-05-19T05:56:19.557Z,25.71
2023-05-19T05:58:51.158Z,26.32
2023-05-19T06:01:21.044Z,26.82
2023-05-19T06:03:49.628Z,26.68
2023-05-19T06:06:21.366Z,26.57
2023-05-19T06:08:49.397Z,26.50
2023-05-19T06:11:19.724Z,26.80
2023-05-19T06:13:48.643Z,27.15
2023-05-19T06:16:24.253Z,27.54
2023-05-19T06:18:54.385Z,28.06
2023-05-19T06:21:22.945Z,28.04
2023-05-19T06:23:51.168Z,27.78
2023-05-19T06:26:19.548Z,27.58
2023-05-19T06:28:47.639Z,27.08
2023-05-19T06:31:16.590Z,26.84
2023-05-19T06:33:57.003Z,27.24
2023-05-19T06:36:25.835Z,28.07
2023-05-19T06:38:55.523Z,29.00
2023-05-19T06:41:23.900Z,29.51
2023-05-19T06:43:52.363Z,28.76
2023-05-19T06:46:23.308Z,28.56
2023-05-19T06:48:51.772Z,29.15
2023-05-19T06:51:22.496Z,30.34
2023-05-19T06:53:54.065Z,30.99
2023-05-19T06:56:23.145Z,31.25
2023-05-19T06:58:51.299Z,31.68
2023-05-19T07:01:19.862Z,31.72
2023-05-19T07:03:51.176Z,31.83
2023-05-19T07:06:19.584Z,31.86
2023-05-19T07:08:48.214Z,31.51
2023-05-19T07:11:17.984Z,31.44
2023-05-19T07:13:46.206Z,30.73
2023-05-19T07:16:15.877Z,30.36
2023-05-19T07:18:45.866Z,30.30
2023-05-19T07:21:13.964Z,30.77
2023-05-19T07:23:42.019Z,30.48
2023-05-19T07:26:10.090Z,29.87
2023-05-19T07:28:39.882Z,29.37
2023-05-19T07:31:09.893Z,29.58
2023-05-19T07:33:38.023Z,28.10
2023-05-19T07:36:06.285Z,27.58
2023-05-19T07:38:34.983Z,27.48
2023-05-19T07:41:03.202Z,27.26
2023-05-19T07:43:31.659Z,26.94
2023-05-19T07:45:59.927Z,26.96
2023-05-19T07:48:28.044Z,27.39
2023-05-19T07:50:56.476Z,27.20
2023-05-19T07:53:24.542Z,26.50
2023-05-19T07:55:52.570Z,27.21
2023-05-19T07:58:20.816Z,27.80
2023-05-19T08:00:48.901Z,28.16
2023-05-19T08:03:21.051Z,28.65
2023-05-19T08:05:49.414Z,28.86
2023-05-19T08:08:19.349Z,28.16
2023-05-19T08:10:47.819Z,27.72
2023-05-19T08:13:15.990Z,27.97
2023-05-19T08:15:44.263Z,28.69
2023-05-19T08:18:12.322Z,29.46
2023-05-19T08:20:40.613Z,30.22
2023-05-19T08:23:08.595Z,30.99
2023-05-19T08:25:36.803Z,31.69
2023-05-19T08:28:05.007Z,32.24
2023-05-19T08:30:33.176Z,32.66
2023-05-19T08:33:01.511Z,32.94
2023-05-19T08:35:29.586Z,32.19
2023-05-19T08:37:57.626Z,31.73
2023-05-19T08:40:27.528Z,32.18
2023-05-19T08:42:55.676Z,32.66
2023-05-19T08:45:24.612Z,32.80
2023-05-19T08:47:52.920Z,32.65
2023-05-19T08:50:25.010Z,32.69
2023-05-19T08:53:01.699Z,32.66
2023-05-19T08:55:55.314Z,32.33
2023-05-19T08:58:23.473Z,32.23
2023-05-19T09:00:52.237Z,32.54
2023-05-19T09:03:23.876Z,32.57
2023-05-19T09:05:52.288Z,32.20
2023-05-19T09:08:20.978Z,32.01
2023-05-19T09:10:49.218Z,32.94
2023-05-19T09:13:17.609Z,33.31
2023-05-19T09:15:45.700Z,33.12
2023-05-19T09:18:15.094Z,32.28
2023-05-19T09:20:43.865Z,31.02
2023-05-19T09:23:16.547Z,29.89
2023-05-19T09:25:47.931Z,28.64
2023-05-19T09:28:23.150Z,27.48
2023-05-19T09:31:01.268Z,26.55
2023-05-19T09:33:29.805Z,26.28
2023-05-19T09:35:57.874Z,26.30
2023-05-19T09:38:29.620Z,26.43
2023-05-19T09:40:58.735Z,26.49
2023-05-19T09:43:30.891Z,25.83
2023-05-19T09:46:06.631Z,25.85
2023-05-19T09:48:36.647Z,25.98
2023-05-19T09:51:07.971Z,26.04
2023-05-19T09:53:36.558Z,25.85
2023-05-19T09:56:05.058Z,25.70
2023-05-19T09:58:37.090Z,25.64
2023-05-19T10:01:06.057Z,25.71
2023-05-19T10:03:34.965Z,25.71
2023-05-19T10:06:04.847Z,25.73
2023-05-19T10:08:33.776Z,25.80
2023-05-19T10:11:02.713Z,25.97
2023-05-19T10:13:31.131Z,26.16
2023-05-19T10:16:00.148Z,26.29
2023-05-19T10:18:29.978Z,26.50
2023-05-19T10:20:59.176Z,27.01
2023-05-19T10:23:27.166Z,27.37
2023-05-19T10:25:58.133Z,27.76
2023-05-19T10:28:30.026Z,28.26
2023-05-19T10:31:00.741Z,28.76
2023-05-19T10:33:41.089Z,29.17
2023-05-19T10:36:24.376Z,29.49
2023-05-19T10:38:52.350Z,29.60
2023-05-19T10:41:21.578Z,29.59
2023-05-19T10:43:54.967Z,29.42
2023-05-19T10:46:27.249Z,29.50
2023-05-19T10:48:55.983Z,29.59
2023-05-19T10:51:33.576Z,29.61
2023-05-19T10:54:02.883Z,29.98
2023-05-19T10:56:33.895Z,30.22
2023-05-19T10:59:02.564Z,30.30
2023-05-19T11:01:34.423Z,29.81
2023-05-19T11:04:14.048Z,29.79
2023-05-19T11:06:51.498Z,30.01
2023-05-19T11:09:24.390Z,29.95
2023-05-19T11:12:03.633Z,29.60
2023-05-19T11:14:32.504Z,29.34
2023-05-19T11:17:01.056Z,29.26
2023-05-19T11:19:29.475Z,28.96
2023-05-19T11:22:07.689Z,29.33
2023-05-19T11:24:45.342Z,29.74
2023-05-19T11:27:31.660Z,29.78
2023-05-19T11:30:02.163Z,29.65
2023-05-19T11:32:31.220Z,29.72
2023-05-19T11:35:00.234Z,29.76
2023-05-19T11:37:32.354Z,29.59
2023-05-19T11:40:09.654Z,29.70
2023-05-19T11:42:37.904Z,30.00
2023-05-19T11:45:06.846Z,30.24
2023-05-19T11:47:45.950Z,30.38
2023-05-19T11:50:20.684Z,30.29
2023-05-19T11:52:49.039Z,30.02
2023-05-19T11:55:17.658Z,29.88
2023-05-19T11:58:11.855Z,29.75
2023-05-19T12:00:42.130Z,29.44
2023-05-19T12:03:10.867Z,29.16
2023-05-19T12:05:43.590Z,29.30
2023-05-19T12:08:12.217Z,29.46
2023-05-19T12:10:41.089Z,29.42
2023-05-19T12:13:10.329Z,29.18
2023-05-19T12:15:39.283Z,28.91
2023-05-19T12:18:07.773Z,28.75
2023-05-19T12:20:36.611Z,28.46
2023-05-19T12:23:05.315Z,28.31
2023-05-19T12:25:33.758Z,28.50
2023-05-19T12:28:05.698Z,28.61
2023-05-19T12:30:35.140Z,28.34
2023-05-19T12:33:03.750Z,28.41
2023-05-19T12:35:36.516Z,28.57
2023-05-19T12:38:05.567Z,28.83
2023-05-19T12:40:35.339Z,29.01
2023-05-19T12:43:04.198Z,29.02
2023-05-19T12:45:37.406Z,29.16
2023-05-19T12:48:06.914Z,29.24
2023-05-19T12:50:37.543Z,29.10
2023-05-19T12:53:08.806Z,29.14
2023-05-19T12:55:39.519Z,29.23
2023-05-19T12:58:08.168Z,29.30
2023-05-19T13:00:40.531Z,29.02
2023-05-19T13:03:16.002Z,28.80
2023-05-19T13:05:46.705Z,28.81
2023-05-19T13:08:18.410Z,29.07
2023-05-19T13:10:47.127Z,28.82
2023-05-19T13:13:15.489Z,28.41
2023-05-19T13:15:45.008Z,28.28
2023-05-19T13:18:13.698Z,27.99
2023-05-19T13:20:42.640Z,27.71
2023-05-19T13:23:11.478Z,27.05
2023-05-19T13:25:40.055Z,26.43
2023-05-19T13:28:08.832Z,25.64
2023-05-19T13:30:39.155Z,24.54
2023-05-19T13:33:08.233Z,23.31
2023-05-19T13:35:39.455Z,21.74
2023-05-19T13:38:10.310Z,20.78
2023-05-19T13:40:40.120Z,20.21
2023-05-19T13:43:09.200Z,20.04
2023-05-19T13:45:37.615Z,19.86
2023-05-19T13:50:55.856Z,19.00
2023-05-19T13:51:33.058Z,19.39
2023-05-19T13:53:24.039Z,18.82
2023-05-19T13:55:55.182Z,18.92
2023-05-19T13:58:23.428Z,18.94
2023-05-19T14:00:54.683Z,18.94
2023-05-19T14:03:23.568Z,19.22
2023-05-19T14:05:52.499Z,19.43
2023-05-19T14:08:21.061Z,19.67
2023-05-19T14:10:51.074Z,19.89
2023-05-19T14:13:32.584Z,19.59
2023-05-19T14:16:04.010Z,19.79
2023-05-19T14:18:32.681Z,19.97
2023-05-19T14:21:00.685Z,19.80
2023-05-19T14:23:30.476Z,20.03
2023-05-19T14:25:58.754Z,20.19
2023-05-19T14:28:26.837Z,20.45
2023-05-19T14:30:55.091Z,20.57
2023-05-19T14:33:23.038Z,20.86
2023-05-19T14:35:50.973Z,21.34
2023-05-19T14:38:19.278Z,21.91
2023-05-19T14:40:48.540Z,22.43
2023-05-19T14:43:16.954Z,22.78
2023-05-19T14:45:45.133Z,22.97
2023-05-19T14:48:13.152Z,23.08
2023-05-19T14:50:41.137Z,23.43
2023-05-19T14:53:09.397Z,23.75
2023-05-19T14:55:37.768Z,24.09
2023-05-19T14:58:15.861Z,24.42
2023-05-19T15:00:48.396Z,24.58
2023-05-19T15:03:16.774Z,24.86
2023-05-19T15:05:45.616Z,25.17
2023-05-19T15:08:13.639Z,24.78
2023-05-19T15:10:41.957Z,24.85
2023-05-19T15:13:10.506Z,25.04
2023-05-19T15:15:38.573Z,25.14
2023-05-19T15:18:06.639Z,25.33
2023-05-19T15:20:34.924Z,25.30
2023-05-19T15:23:03.259Z,25.29
2023-05-19T15:25:31.605Z,25.40
2023-05-19T15:27:59.798Z,25.57
2023-05-19T15:30:27.779Z,25.67
2023-05-19T15:32:55.947Z,25.75
2023-05-19T15:35:24.060Z,25.69
2023-05-19T15:37:52.429Z,25.78
2023-05-19T15:40:20.554Z,25.91
2023-05-19T15:42:48.508Z,25.99
2023-05-19T15:45:16.556Z,25.95
2023-05-19T15:47:44.795Z,25.69
2023-05-19T15:50:13.165Z,25.42
2023-05-19T15:52:42.304Z,25.05
2023-05-19T15:55:10.515Z,24.78
2023-05-19T15:57:38.513Z,24.33
2023-05-19T16:00:07.750Z,24.01
2023-05-19T16:02:36.197Z,23.79
2023-05-19T16:05:04.571Z,23.43
2023-05-19T16:07:32.589Z,23.18
2023-05-19T16:10:00.628Z,22.98
2023-05-19T16:12:29.657Z,22.81
2023-05-19T16:14:57.747Z,22.60
2023-05-19T16:17:26.133Z,22.39
2023-05-19T16:19:54.246Z,22.19
2023-05-19T16:22:24.900Z,22.12
2023-05-19T16:24:53.080Z,22.01
2023-05-19T16:27:21.282Z,21.86
2023-05-19T16:29:49.607Z,21.77
2023-05-19T16:32:17.614Z,21.60
2023-05-19T16:34:45.554Z,21.44
2023-05-19T16:37:13.688Z,21.35
2023-05-19T16:39:43.863Z,21.28
2023-05-19T16:42:11.940Z,21.19
2023-05-19T16:44:39.912Z,21.08
2023-05-19T16:47:07.994Z,20.93
2023-05-19T16:49:36.024Z,20.91
2023-05-19T16:52:04.269Z,20.92
2023-05-19T16:54:32.243Z,20.90
2023-05-19T16:57:00.494Z,20.86
2023-05-19T16:59:28.506Z,20.88
2023-05-19T17:01:57.018Z,20.90
2023-05-19T17:04:25.252Z,20.92
2023-05-19T17:06:53.223Z,20.91
2023-05-19T17:09:25.283Z,20.88
2023-05-19T17:11:53.591Z,20.87
2023-05-19T17:14:21.648Z,20.83
2023-05-19T17:16:49.851Z,20.74
2023-05-19T17:19:17.924Z,20.58
2023-05-19T17:21:46.550Z,20.39
2023-05-19T17:24:14.614Z,20.27
2023-05-19T17:26:42.575Z,20.16
2023-05-19T17:29:10.607Z,20.11
2023-05-19T17:31:38.814Z,20.10
2023-05-19T17:34:06.976Z,20.05
2023-05-19T17:36:35.122Z,19.93
2023-05-19T17:39:03.720Z,19.83
2023-05-19T17:41:31.941Z,19.72
2023-05-19T17:44:00.145Z,19.63
2023-05-19T17:46:30.282Z,19.52
2023-05-19T17:48:59.066Z,19.39
2023-05-19T17:51:27.809Z,19.38
2023-05-19T17:53:55.996Z,19.39
2023-05-19T17:56:25.007Z,19.36
2023-05-19T17:58:53.588Z,19.38
2023-05-19T18:01:24.216Z,19.39
2023-05-19T18:03:52.765Z,19.33
2023-05-19T18:06:20.945Z,19.29
2023-05-19T18:08:51.401Z,19.26
2023-05-19T18:11:20.085Z,19.20
2023-05-19T18:13:48.083Z,19.21
2023-05-19T18:16:16.082Z,19.23
2023-05-19T18:18:47.140Z,19.26
2023-05-19T18:21:17.940Z,19.27
2023-05-19T18:23:46.531Z,19.28
2023-05-19T18:26:14.738Z,19.25
2023-05-19T18:28:43.579Z,19.15
2023-05-19T18:31:17.503Z,19.03
2023-05-19T18:33:46.580Z,18.95
2023-05-19T18:36:16.784Z,18.90
2023-05-19T18:38:44.990Z,18.94
2023-05-19T18:41:14.670Z,18.95
2023-05-19T18:43:42.698Z,18.98
2023-05-19T18:46:10.768Z,19.01
2023-05-19T18:48:39.211Z,19.01
2023-05-19T18:51:07.892Z,19.00
2023-05-19T18:53:36.490Z,18.95
2023-05-19T18:56:04.555Z,18.89
2023-05-19T18:58:32.713Z,18.87
2023-05-19T19:01:00.761Z,18.84
2023-05-19T19:03:29.008Z,18.82
2023-05-19T19:06:00.828Z,18.84
2023-05-19T19:08:28.815Z,18.86
2023-05-19T19:11:00.307Z,18.91
2023-05-19T19:13:28.547Z,18.93
2023-05-19T19:15:57.190Z,18.88
2023-05-19T19:18:26.226Z,18.85
2023-05-19T19:20:54.999Z,18.82
2023-05-19T19:23:23.502Z,18.78
2023-05-19T19:25:51.532Z,18.70
2023-05-19T19:28:19.637Z,18.55
2023-05-19T19:30:49.752Z,18.50
2023-05-19T19:33:17.862Z,18.44
2023-05-19T19:35:48.758Z,18.34
2023-05-19T19:38:17.151Z,18.26
2023-05-19T19:40:45.257Z,18.17
2023-05-19T19:43:13.443Z,18.04
2023-05-19T19:45:42.166Z,17.93
2023-05-19T19:48:10.257Z,17.85
2023-05-19T19:50:38.322Z,17.78
2023-05-19T19:53:06.670Z,17.72
2023-05-19T19:55:34.835Z,17.65
2023-05-19T19:58:02.919Z,17.61
2023-05-19T20:00:31.617Z,17.59
2023-05-19T20:03:04.539Z,17.59
2023-05-19T20:05:34.732Z,17.57
2023-05-19T20:08:02.711Z,17.51
2023-05-19T20:10:31.153Z,17.46
2023-05-19T20:12:59.638Z,17.41
2023-05-19T20:15:27.690Z,17.32
2023-05-19T20:17:56.031Z,17.24
2023-05-19T20:20:24.109Z,17.18
2023-05-19T20:22:52.451Z,17.14
2023-05-19T20:25:20.549Z,17.06
2023-05-19T20:27:48.575Z,17.03
2023-05-19T20:30:16.832Z,17.02
2023-05-19T20:32:46.719Z,17.01
2023-05-19T20:35:15.106Z,16.98
2023-05-19T20:37:43.053Z,16.97
2023-05-19T20:40:11.269Z,16.92
2023-05-19T20:42:39.514Z,16.86
2023-05-19T20:45:08.285Z,16.83
2023-05-19T20:47:36.504Z,16.82
2023-05-19T20:50:04.818Z,16.75
2023-05-19T20:52:33.175Z,16.71
2023-05-19T20:55:01.291Z,16.79
2023-05-19T20:57:29.325Z,16.83
2023-05-19T20:59:57.360Z,16.83
2023-05-19T21:02:25.549Z,16.80
2023-05-19T21:04:53.679Z,16.71
2023-05-19T21:07:21.840Z,16.68
2023-05-19T21:09:51.527Z,16.69
2023-05-19T21:12:23.902Z,16.70
2023-05-19T21:14:52.309Z,16.69
2023-05-19T21:17:21.260Z,16.66
2023-05-19T21:19:50.612Z,16.60
2023-05-19T21:22:19.090Z,16.55
2023-05-19T21:24:47.190Z,16.51
2023-05-19T21:27:15.292Z,16.48
2023-05-19T21:29:43.232Z,16.43
2023-05-19T21:32:11.229Z,16.37
2023-05-19T21:34:39.535Z,16.36
2023-05-19T21:37:07.716Z,16.34
2023-05-19T21:39:35.846Z,16.33
2023-05-19T21:42:04.268Z,16.31
2023-05-19T21:44:32.496Z,16.28
2023-05-19T21:47:00.898Z,16.27
2023-05-19T21:49:28.988Z,16.21
2023-05-19T21:51:57.055Z,16.14
2023-05-19T21:54:24.983Z,16.08
2023-05-19T21:56:56.094Z,16.02
2023-05-19T21:59:24.889Z,15.97
2023-05-19T22:01:53.118Z,15.95
2023-05-19T22:04:22.676Z,15.92
2023-05-19T22:06:51.296Z,15.89
2023-05-19T22:09:19.265Z,15.89
2023-05-19T22:11:47.243Z,15.88
2023-05-19T22:14:15.615Z,15.85
2023-05-19T22:16:43.866Z,15.81
2023-05-19T22:19:12.244Z,15.77
2023-05-19T22:21:40.830Z,15.72
2023-05-19T22:24:09.294Z,15.70
2023-05-19T22:26:38.008Z,15.69
2023-05-19T22:29:06.207Z,15.71
2023-05-19T22:31:34.151Z,15.71
2023-05-19T22:34:02.307Z,15.71
2023-05-19T22:36:31.384Z,15.66
2023-05-19T22:38:59.348Z,15.50
2023-05-19T22:41:27.490Z,15.44
2023-05-19T22:43:55.457Z,15.40
2023-05-19T22:46:23.715Z,15.37
2023-05-19T22:48:51.901Z,15.40
2023-05-19T22:51:19.950Z,15.43
2023-05-19T22:53:49.009Z,15.42
2023-05-19T22:56:17.285Z,15.42
2023-05-19T22:58:45.238Z,15.44
2023-05-19T23:01:13.253Z,15.43
2023-05-19T23:03:41.502Z,15.40
2023-05-19T23:06:09.713Z,15.31
2023-05-19T23:08:37.662Z,15.26
2023-05-19T23:11:05.690Z,15.27
2023-05-19T23:13:33.869Z,15.27
2023-05-19T23:16:02.470Z,15.24
2023-05-19T23:18:30.457Z,15.14
2023-05-19T23:20:58.692Z,15.06
2023-05-19T23:23:27.643Z,15.03
2023-05-19T23:25:56.764Z,14.98
2023-05-19T23:28:24.817Z,14.88
2023-05-19T23:30:53.325Z,14.79
2023-05-19T23:33:21.666Z,14.72
2023-05-19T23:35:49.687Z,14.70
2023-05-19T23:38:17.904Z,14.65
2023-05-19T23:40:46.082Z,14.61
2023-05-19T23:43:14.116Z,14.61
2023-05-19T23:45:42.444Z,14.58
2023-05-19T23:48:11.236Z,14.58
2023-05-19T23:50:39.322Z,14.59
2023-05-19T23:53:08.150Z,14.59
2023-05-19T23:55:36.308Z,14.59
2023-05-19T23:58:04.546Z,14.56
